CYQG

Windsor Airport

Windsor, , Canada
METAR CYQG 192119Z AUTO 21008KT 9SM SCT021 BKN150 BKN190 03/M01 A2998 RMK SLP161
Observed Flight Rules
Nov-19 @ 21:19 UTC (46 minutes ago) Visual Flight Rules
Wind Visibility Clouds
210° at 8 knots 9 miles
  • Scattered at 2,100' AGL
  • Broken at 15,000' AGL
  • Broken at 19,000' AGL
Temperatures Readings
Current 3°C / 37°F
Dewpoint -1°C / 30°F
Humidity 75%
Altimeter 29.98" Hg
Pressure 1016.1 hPa
Elevation 190
METAR CYQG 192119Z AUTO 21008KT 9SM SCT021 BKN150 BKN190 03/M01 A2998 RMK SLP161
Observed Flight Rules
Nov-19 @ 21:19 UTC
(46 minutes ago)
VFR
Wind Visibility
210° at 8 knots 9 miles
Clouds
  • Scattered at 2,100' AGL
  • Broken at 15,000' AGL
  • Broken at 19,000' AGL
Temperature Dewpoint
3°C / 37°F -1°C / 30°F
Humidity Altimeter Pressure
75% 29.98" Hg 1016.1 hPa